MSC Divina — 3FFA5 — position and weather

sailwx.info

Track history (hours):
 
Tides and Currents Weather Stations Pressure Air Temp Water Temp Dewpoint Dewpoint Depression Visibility Wind Speed Wind Dir Waves Ship Positions

MSC Divina

Last reported at 2016-Apr-28 06:30 UTC. Time now 2016-Apr-28 21:56 UTC.
Position N 18°33' W 066°11'.

Length 333 m; draft 8.6 m.

Type: Passenger vessel. MMSI: 373178000.

Date/timePositionNaut miles runAvg speedWind from/ knotsBaromVisibWave heightAir tempDewpointWater temp
2016-Apr-28 06:30N 18°33' W 066°11'6 6.5
2016-Apr-28 05:29N 18°28' W 066°07'0 0.0
2016-Apr-28 03:25N 18°28' W 066°07'0 0.0
2016-Apr-27 22:31N 18°28' W 066°07'0 0.0
2016-Apr-27 21:31N 18°28' W 066°07'0 0.0
2016-Apr-27 20:24N 18°28' W 066°07'0 0.0
2016-Apr-27 18:13N 18°28' W 066°07'0 0.0
2016-Apr-27 12:34N 18°28' W 066°07'5 5.1
2016-Apr-27 11:33N 18°32' W 066°04'6616.2
2016-Apr-27 07:30N 18°12' W 064°58'7317.9
2016-Apr-27 03:25N 18°04' W 063°42'1617.6
2016-Apr-27 02:31N 18°02' W 063°25'1817.6
2016-Apr-27 01:31N 18°00' W 063°07'4 3.2
2016-Apr-27 00:19N 18°01' W 063°03'0 0.0
2016-Apr-26 23:33N 18°01' W 063°03'0 0.0
2016-Apr-26 22:04N 18°01' W 063°03'0 0.0
2016-Apr-26 21:30N 18°01' W 063°03'0 0.0
2016-Apr-26 20:18N 18°01' W 063°03'0 0.0
2016-Apr-26 18:33N 18°01' W 063°03'4 2.0
2016-Apr-26 16:33N 18°00' W 063°07'1919.2
2016-Apr-26 15:33N 18°10' W 063°24'  
2016-Apr-24 04:33N 26°12' W 078°52'3316.4
2016-Apr-24 02:34N 26°18' W 079°27'1919.2
2016-Apr-24 01:34N 25°59' W 079°33'1717.5
2016-Apr-24 00:34N 25°51' W 079°50'1616.3
2016-Apr-23 23:33N 25°46' W 080°07'3 2.8
2016-Apr-23 22:26N 25°47' W 080°10'0 0.0
2016-Apr-23 21:27N 25°47' W 080°10'0 0.0
2016-Apr-23 20:17N 25°47' W 080°10'0 0.0
2016-Apr-23 18:18N 25°47' W 080°10'0 0.0
2016-Apr-23 17:17N 25°47' W 080°10'0 0.0
2016-Apr-23 16:25N 25°47' W 080°10'0 0.0
2016-Apr-23 15:25N 25°47' W 080°10'0 0.0
2016-Apr-23 14:17N 25°47' W 080°10'0 0.0
2016-Apr-23 13:17N 25°47' W 080°10'0 0.0
2016-Apr-23 12:13N 25°47' W 080°10'0 0.0
2016-Apr-23 11:28N 25°47' W 080°10'0 0.3
2016-Apr-23 10:33N 25°47' W 080°11'8 8.2
2016-Apr-23 09:34N 25°47' W 080°02'1817.9
2016-Apr-23 08:33N 25°55' W 079°44'1818.2
2016-Apr-23 07:33N 26°04' W 079°26'  
2016-Apr-20 20:34N 18°31' W 066°09'4 3.7
2016-Apr-20 19:29N 18°28' W 066°07'0 0.0
2016-Apr-20 18:32N 18°28' W 066°07'0 0.0
2016-Apr-20 17:29N 18°28' W 066°07'0 0.0
2016-Apr-20 16:32N 18°28' W 066°07'0 0.0
2016-Apr-20 15:32N 18°28' W 066°07'0 0.0
2016-Apr-20 14:32N 18°28' W 066°07'71 7.1
2016-Apr-20 04:32N 18°11' W 064°54'7216.2
2016-Apr-20 00:06N 18°04' W 063°39'915.9
2016-Apr-19 23:30N 18°03' W 063°29'1515.7
2016-Apr-19 22:33N 18°01' W 063°13'10 5.0
2016-Apr-19 20:33N 18°01' W 063°03'0 0.0
2016-Apr-19 18:32N 18°01' W 063°03'0 0.0
2016-Apr-19 16:22N 18°01' W 063°03'9811.0
2016-Apr-19 07:27N 18°08' W 064°46'6721.0
2016-Apr-19 04:14N 18°32' W 065°53'1420.7
2016-Apr-19 03:34N 18°30' W 066°07'1 1.1
2016-Apr-19 02:33N 18°29' W 066°08'  
Track history (hours):
 
Tides and Currents Weather Stations Pressure Air Temp Water Temp Dewpoint Dewpoint Depression Visibility Wind Speed Wind Dir Waves Ship Positions

MSC Divina

Last reported at 2016-Apr-28 06:30 UTC. Time now 2016-Apr-28 21:56 UTC.
Position N 18°33' W 066°11'.

Length 333 m; draft 8.6 m.

Type: Passenger vessel. MMSI: 373178000.

Date/timePositionNaut miles runAvg speedWind from/ knotsBaromVisibWave heightAir tempDewpointWater temp
2016-Apr-28 06:30N 18°33' W 066°11'6 6.5
2016-Apr-28 05:29N 18°28' W 066°07'0 0.0
2016-Apr-28 03:25N 18°28' W 066°07'0 0.0
2016-Apr-27 22:31N 18°28' W 066°07'0 0.0
2016-Apr-27 21:31N 18°28' W 066°07'0 0.0
2016-Apr-27 20:24N 18°28' W 066°07'0 0.0
2016-Apr-27 18:13N 18°28' W 066°07'0 0.0
2016-Apr-27 12:34N 18°28' W 066°07'5 5.1
2016-Apr-27 11:33N 18°32' W 066°04'6616.2
2016-Apr-27 07:30N 18°12' W 064°58'7317.9
2016-Apr-27 03:25N 18°04' W 063°42'1617.6
2016-Apr-27 02:31N 18°02' W 063°25'1817.6
2016-Apr-27 01:31N 18°00' W 063°07'4 3.2
2016-Apr-27 00:19N 18°01' W 063°03'0 0.0
2016-Apr-26 23:33N 18°01' W 063°03'0 0.0
2016-Apr-26 22:04N 18°01' W 063°03'0 0.0
2016-Apr-26 21:30N 18°01' W 063°03'0 0.0
2016-Apr-26 20:18N 18°01' W 063°03'0 0.0
2016-Apr-26 18:33N 18°01' W 063°03'4 2.0
2016-Apr-26 16:33N 18°00' W 063°07'1919.2
2016-Apr-26 15:33N 18°10' W 063°24'  
2016-Apr-24 04:33N 26°12' W 078°52'3316.4
2016-Apr-24 02:34N 26°18' W 079°27'1919.2
2016-Apr-24 01:34N 25°59' W 079°33'1717.5
2016-Apr-24 00:34N 25°51' W 079°50'1616.3
2016-Apr-23 23:33N 25°46' W 080°07'3 2.8
2016-Apr-23 22:26N 25°47' W 080°10'0 0.0
2016-Apr-23 21:27N 25°47' W 080°10'0 0.0
2016-Apr-23 20:17N 25°47' W 080°10'0 0.0
2016-Apr-23 18:18N 25°47' W 080°10'0 0.0
2016-Apr-23 17:17N 25°47' W 080°10'0 0.0
2016-Apr-23 16:25N 25°47' W 080°10'0 0.0
2016-Apr-23 15:25N 25°47' W 080°10'0 0.0
2016-Apr-23 14:17N 25°47' W 080°10'0 0.0
2016-Apr-23 13:17N 25°47' W 080°10'0 0.0
2016-Apr-23 12:13N 25°47' W 080°10'0 0.0
2016-Apr-23 11:28N 25°47' W 080°10'0 0.3
2016-Apr-23 10:33N 25°47' W 080°11'8 8.2
2016-Apr-23 09:34N 25°47' W 080°02'1817.9
2016-Apr-23 08:33N 25°55' W 079°44'1818.2
2016-Apr-23 07:33N 26°04' W 079°26'  
2016-Apr-20 20:34N 18°31' W 066°09'4 3.7
2016-Apr-20 19:29N 18°28' W 066°07'0 0.0
2016-Apr-20 18:32N 18°28' W 066°07'0 0.0
2016-Apr-20 17:29N 18°28' W 066°07'0 0.0
2016-Apr-20 16:32N 18°28' W 066°07'0 0.0
2016-Apr-20 15:32N 18°28' W 066°07'0 0.0
2016-Apr-20 14:32N 18°28' W 066°07'71 7.1
2016-Apr-20 04:32N 18°11' W 064°54'7216.2
2016-Apr-20 00:06N 18°04' W 063°39'915.9
2016-Apr-19 23:30N 18°03' W 063°29'1515.7
2016-Apr-19 22:33N 18°01' W 063°13'10 5.0
2016-Apr-19 20:33N 18°01' W 063°03'0 0.0
2016-Apr-19 18:32N 18°01' W 063°03'0 0.0
2016-Apr-19 16:22N 18°01' W 063°03'9811.0
2016-Apr-19 07:27N 18°08' W 064°46'6721.0
2016-Apr-19 04:14N 18°32' W 065°53'1420.7
2016-Apr-19 03:34N 18°30' W 066°07'1 1.1
2016-Apr-19 02:33N 18°29' W 066°08'  

Dump ship's entire track history